Time;durP1;ratioP1;P1;durP2;ratioP2;P2;SDS_P1;SDS_P2;PMS_P1;PMS_P2;Temp;Humidity;BMP_temperature;BMP_pressure;BME280_temperature;BME280_humidity;BME280_pressure;Samples;Min_cycle;Max_cycle;Signal;HPM_P1;HPM_P2
2023/06/14 00:00:40;;;;;;;;;19.25;18.50;;;;;22.19;38.83;100853.47;6299768;22;45296;-89
2023/06/14 00:03:10;;;;;;;;;19.75;18.75;;;;;22.13;38.62;100845.06;6300049;22;44736;-89
2023/06/14 00:05:40;;;;;;;;;18.75;18.50;;;;;22.11;38.95;100848.81;6300172;22;45293;-89
2023/06/14 00:08:07;;;;;;;;;15.75;14.75;;;;;22.09;38.88;100851.59;6272984;22;47745;-89
2023/06/14 00:10:35;;;;;;;;;18.00;16.50;;;;;22.07;38.84;100847.41;6300230;22;45321;-89
2023/06/14 00:13:04;;;;;;;;;18.50;17.50;;;;;22.04;38.62;100853.78;6299819;22;45238;-88
2023/06/14 00:15:31;;;;;;;;;12.75;12.75;;;;;22.02;39.02;100856.56;6274058;22;45326;-89
2023/06/14 00:18:00;;;;;;;;;15.50;15.00;;;;;21.99;39.18;100864.75;6297541;22;48376;-89
2023/06/14 00:20:26;;;;;;;;;17.00;16.50;;;;;21.95;39.42;100858.06;6297421;22;45544;-89
2023/06/14 00:22:51;;;;;;;;;18.25;15.50;;;;;21.90;39.53;100852.28;6299205;22;45255;-88
2023/06/14 00:25:17;;;;;;;;;16.75;16.00;;;;;21.86;39.70;100854.31;6299122;22;45274;-89
2023/06/14 00:27:42;;;;;;;;;18.25;17.75;;;;;21.85;39.47;100857.94;6297766;22;47841;-89
2023/06/14 00:30:08;;;;;;;;;16.25;16.25;;;;;21.79;39.76;100845.22;6274737;22;45310;-89
2023/06/14 00:32:34;;;;;;;;;20.75;18.00;;;;;21.77;39.58;100852.44;6300029;22;45311;-89
2023/06/14 00:34:59;;;;;;;;;15.00;12.75;;;;;21.76;39.99;100850.78;6281932;22;45541;-89
2023/06/14 00:37:24;;;;;;;;;15.00;14.00;;;;;21.73;39.82;100858.97;6302840;22;46290;-89
2023/06/14 00:39:50;;;;;;;;;17.25;16.25;;;;;21.70;39.87;100862.69;6300015;22;45302;-89
2023/06/14 00:42:28;;;;;;;;;18.25;17.25;;;;;21.66;40.03;100863.06;6299438;22;45305;-89
2023/06/14 00:44:55;;;;;;;;;16.50;16.25;;;;;21.63;39.96;100864.13;6274166;22;45231;-88
2023/06/14 00:47:20;;;;;;;;;19.00;17.75;;;;;21.58;40.17;100859.19;6298566;22;47267;-89
2023/06/14 00:49:47;;;;;;;;;19.25;17.25;;;;;21.58;40.22;100863.66;6299105;22;45525;-89
2023/06/14 00:52:14;;;;;;;;;17.75;16.75;;;;;21.52;40.43;100856.22;6299772;22;45439;-89
2023/06/14 00:54:40;;;;;;;;;16.75;16.00;;;;;21.45;40.92;100858.53;6273959;22;44908;-88
2023/06/14 00:57:07;;;;;;;;;13.50;13.00;;;;;21.46;40.79;100865.50;6297761;22;46756;-88
2023/06/14 00:59:33;;;;;;;;;20.75;19.00;;;;;21.41;40.83;100863.22;6299253;22;45554;-88
2023/06/14 01:01:58;;;;;;;;;19.50;18.25;;;;;21.39;40.87;100867.81;6274742;22;45332;-88
2023/06/14 01:04:24;;;;;;;;;12.50;12.50;;;;;21.36;41.08;100866.25;6300082;22;45619;-88
2023/06/14 01:07:14;;;;;;;;;17.50;17.50;;;;;21.34;40.92;100869.97;6275622;22;46298;-88
2023/06/14 01:10:00;;;;;;;;;19.00;18.00;;;;;21.30;41.47;100869.34;6300683;22;45282;-88
2023/06/14 01:12:45;;;;;;;;;16.25;16.25;;;;;21.25;41.36;100860.97;6280034;22;45329;-89
2023/06/14 01:15:12;;;;;;;;;17.75;17.50;;;;;21.20;41.30;100871.91;6307077;22;45774;-88
2023/06/14 01:17:41;;;;;;;;;19.50;18.75;;;;;21.17;41.54;100864.22;6299687;22;47405;-88
2023/06/14 01:20:12;;;;;;;;;20.00;19.00;;;;;21.13;41.44;100867.22;6273887;22;45255;-88
2023/06/14 01:22:37;;;;;;;;;16.50;16.50;;;;;21.11;41.74;100871.78;6275827;22;45315;-88
2023/06/14 01:25:04;;;;;;;;;17.50;17.50;;;;;21.06;41.50;100862.41;6301083;22;45199;-88
2023/06/14 01:27:32;;;;;;;;;18.50;17.75;;;;;21.05;42.08;100873.97;6301467;22;45712;-88
2023/06/14 01:29:59;;;;;;;;;20.00;18.00;;;;;21.01;42.02;100869.88;6275134;22;45572;-88
2023/06/14 01:32:27;;;;;;;;;16.25;16.00;;;;;20.98;41.69;100869.28;6302011;22;45306;-88
2023/06/14 01:34:52;;;;;;;;;19.25;17.25;;;;;20.95;42.44;100873.00;6300840;22;45416;-88
2023/06/14 01:37:19;;;;;;;;;20.00;19.75;;;;;20.91;42.96;100869.75;6274445;22;46590;-89
2023/06/14 01:39:45;;;;;;;;;18.50;16.75;;;;;20.88;42.69;100871.81;6275696;22;45195;-88
2023/06/14 01:42:12;;;;;;;;;23.00;19.00;;;;;20.82;42.81;100867.78;6274635;22;45207;-88
2023/06/14 01:44:41;;;;;;;;;13.25;11.00;;;;;20.78;43.30;100863.72;6300723;22;45235;-89
2023/06/14 01:47:07;;;;;;;;;20.75;20.75;;;;;20.74;43.00;100864.91;6275982;22;46138;-88
2023/06/14 01:49:35;;;;;;;;;20.75;19.75;;;;;20.71;43.35;100873.91;6301296;22;45330;-88
2023/06/14 01:52:00;;;;;;;;;20.75;18.75;;;;;20.68;43.34;100871.50;6319319;22;44667;-88
2023/06/14 01:54:26;;;;;;;;;20.25;18.75;;;;;20.64;43.38;100872.72;6317737;22;45219;-88
2023/06/14 01:56:52;;;;;;;;;18.50;18.00;;;;;20.61;43.14;100879.06;6279570;22;47200;-88
2023/06/14 01:59:17;;;;;;;;;19.50;17.25;;;;;20.58;43.59;100876.66;6309843;22;45402;-88
2023/06/14 02:01:42;;;;;;;;;19.00;17.00;;;;;20.55;43.76;100871.63;6313011;22;45274;-88
2023/06/14 02:04:08;;;;;;;;;20.75;17.25;;;;;20.51;43.81;100878.91;6283713;22;45340;-89
2023/06/14 02:06:34;;;;;;;;;18.75;18.75;;;;;20.48;43.84;100871.22;6286708;22;45403;-88
2023/06/14 02:09:01;;;;;;;;;18.25;18.25;;;;;20.45;43.90;100881.19;6313443;22;45404;-88
2023/06/14 02:11:26;;;;;;;;;19.00;17.00;;;;;20.38;44.06;100873.75;6308463;22;45023;-88
2023/06/14 02:13:52;;;;;;;;;19.25;16.25;;;;;20.36;44.21;100873.00;6281355;22;45282;-88
2023/06/14 02:16:18;;;;;;;;;19.50;18.25;;;;;20.30;44.41;100876.09;6276584;22;47897;-87
2023/06/14 02:18:43;;;;;;;;;21.00;20.00;;;;;20.28;44.45;100880.66;6282616;22;45298;-88
2023/06/14 02:21:08;;;;;;;;;24.00;20.50;;;;;20.26;44.16;100880.78;6293167;22;44678;-88
2023/06/14 02:23:34;;;;;;;;;18.50;18.25;;;;;20.22;44.30;100883.78;6305853;22;44780;-88
2023/06/14 02:25:59;;;;;;;;;22.50;20.25;;;;;20.19;44.93;100878.72;6277219;22;46536;-88
2023/06/14 02:28:24;;;;;;;;;17.75;17.50;;;;;20.12;44.41;100883.59;6278785;22;45317;-87
2023/06/14 02:30:50;;;;;;;;;18.25;17.50;;;;;20.08;45.05;100880.34;6307198;22;45304;-88
2023/06/14 02:33:17;;;;;;;;;18.00;18.00;;;;;20.07;44.96;100889.22;6310080;22;45303;-88
2023/06/14 02:35:43;;;;;;;;;24.00;20.50;;;;;20.03;45.05;100885.97;6307471;22;46399;-87
2023/06/14 02:38:08;;;;;;;;;20.50;20.25;;;;;19.97;45.32;100880.31;6308062;22;45425;-88
2023/06/14 02:40:33;;;;;;;;;20.00;19.00;;;;;19.99;45.00;100891.59;6278797;22;45123;-88
2023/06/14 02:42:59;;;;;;;;;19.75;19.75;;;;;19.94;45.05;100883.97;6308378;22;45521;-88
2023/06/14 02:45:25;;;;;;;;;21.25;20.50;;;;;19.94;45.41;100891.91;6279086;22;46868;-89
2023/06/14 02:47:51;;;;;;;;;19.75;19.75;;;;;19.92;45.50;100895.59;6304248;22;45392;-87
2023/06/14 02:50:17;;;;;;;;;18.00;17.75;;;;;19.88;45.59;100895.84;6305056;22;45344;-86
2023/06/14 02:52:44;;;;;;;;;21.00;20.00;;;;;19.84;45.46;100893.53;6307588;22;45408;-87
2023/06/14 02:55:10;;;;;;;;;21.50;17.75;;;;;19.79;45.71;100896.50;6304070;22;46716;-87
2023/06/14 02:57:35;;;;;;;;;14.75;13.75;;;;;19.78;46.09;100886.91;6306790;22;45484;-87
2023/06/14 03:00:00;;;;;;;;;21.00;18.25;;;;;19.74;45.99;100894.22;6306547;22;45340;-87
2023/06/14 03:02:26;;;;;;;;;18.75;17.75;;;;;19.73;46.06;100896.97;6304693;22;45543;-87
2023/06/14 03:04:51;;;;;;;;;14.50;13.75;;;;;19.70;46.39;100898.03;6278803;22;46731;-87
2023/06/14 03:07:19;;;;;;;;;21.25;17.25;;;;;19.65;46.39;100900.16;6304688;22;45262;-87
2023/06/14 03:09:45;;;;;;;;;24.00;21.00;;;;;19.65;46.47;100904.56;6285158;22;45310;-87
2023/06/14 03:12:11;;;;;;;;;19.00;17.00;;;;;19.57;47.12;100900.69;6311654;22;45635;-86
2023/06/14 03:14:36;;;;;;;;;20.00;18.75;;;;;19.54;46.66;100906.22;6307149;22;45909;-87
2023/06/14 03:17:04;;;;;;;;;21.75;21.75;;;;;19.54;46.60;100903.56;6278420;22;45220;-87
2023/06/14 03:19:30;;;;;;;;;20.25;20.00;;;;;19.50;46.91;100912.66;6304753;22;45197;-86
2023/06/14 03:21:57;;;;;;;;;19.75;18.50;;;;;19.49;46.84;100918.88;6307186;22;45527;-87
2023/06/14 03:24:27;;;;;;;;;25.50;22.00;;;;;19.47;46.91;100921.63;6306818;22;46145;-87
2023/06/14 03:26:53;;;;;;;;;19.75;18.50;;;;;19.44;47.02;100927.13;6278669;22;45400;-87
2023/06/14 03:29:18;;;;;;;;;24.75;22.25;;;;;19.42;47.07;100930.81;6306797;22;45152;-87
2023/06/14 03:32:02;;;;;;;;;21.00;19.50;;;;;19.39;47.50;100931.03;6278131;22;45231;-85
2023/06/14 03:34:28;;;;;;;;;19.25;19.25;;;;;19.35;48.06;100935.69;6302519;22;46995;-87
2023/06/14 03:36:53;;;;;;;;;19.25;19.00;;;;;19.31;47.40;100932.41;6303967;22;45403;-86
2023/06/14 03:39:19;;;;;;;;;20.50;20.25;;;;;19.28;47.93;100934.41;6304441;22;45210;-87
2023/06/14 03:41:45;;;;;;;;;19.00;17.25;;;;;19.23;47.70;100937.38;6279034;22;45324;-87
2023/06/14 03:44:10;;;;;;;;;19.25;18.00;;;;;19.21;48.01;100937.50;6303839;22;46656;-87
2023/06/14 03:46:35;;;;;;;;;19.75;17.75;;;;;19.21;47.94;100941.94;6305934;22;45366;-87
2023/06/14 03:49:02;;;;;;;;;18.50;17.75;;;;;19.19;47.92;100941.19;6310918;22;45314;-86
2023/06/14 03:51:28;;;;;;;;;21.00;18.75;;;;;19.15;48.00;100944.97;6309905;22;45530;-86
2023/06/14 03:53:55;;;;;;;;;21.25;19.25;;;;;19.16;47.87;100947.50;6278358;22;46988;-87
2023/06/14 03:56:20;;;;;;;;;19.50;19.25;;;;;19.12;47.83;100950.47;6304213;22;45377;-87
2023/06/14 03:58:45;;;;;;;;;21.75;19.75;;;;;19.12;48.18;100948.66;6277981;22;45350;-87
2023/06/14 04:01:12;;;;;;;;;19.50;19.50;;;;;19.09;48.58;100946.25;6304070;22;45441;-87
2023/06/14 04:03:37;;;;;;;;;18.50;18.25;;;;;19.09;48.33;100943.63;6303368;22;46317;-87
2023/06/14 04:06:04;;;;;;;;;24.25;21.75;;;;;19.07;48.18;100942.91;6302812;22;45366;-87
2023/06/14 04:08:30;;;;;;;;;20.25;19.25;;;;;19.07;48.11;100949.00;6277621;22;45285;-86
2023/06/14 04:10:55;;;;;;;;;22.25;20.75;;;;;19.02;48.06;100945.78;6305385;22;45216;-87
2023/06/14 04:13:20;;;;;;;;;23.75;20.50;;;;;19.06;48.00;100955.22;6303209;22;45732;-87
2023/06/14 04:15:46;;;;;;;;;19.50;18.00;;;;;19.03;48.08;100952.78;6277762;22;45215;-87
2023/06/14 04:18:11;;;;;;;;;18.25;18.25;;;;;19.02;48.09;100956.34;6304848;22;45193;-86
2023/06/14 04:20:37;;;;;;;;;22.75;21.25;;;;;19.00;48.33;100949.50;6303759;22;45292;-87
2023/06/14 04:23:14;;;;;;;;;20.75;19.75;;;;;18.99;48.45;100951.31;6306016;22;45213;-87
2023/06/14 04:25:40;;;;;;;;;18.25;18.25;;;;;19.00;48.26;100960.88;6306281;22;45358;-87
2023/06/14 04:28:05;;;;;;;;;17.75;16.75;;;;;19.01;48.46;100969.63;6311974;22;45520;-87
2023/06/14 04:30:31;;;;;;;;;18.75;18.75;;;;;18.99;48.66;100961.00;6310034;22;45577;-87
2023/06/14 04:32:57;;;;;;;;;23.75;20.25;;;;;19.00;49.12;100967.94;6305917;22;45250;-86
2023/06/14 04:35:23;;;;;;;;;21.75;21.50;;;;;18.98;48.83;100981.22;6277257;22;45391;-86
2023/06/14 04:37:49;;;;;;;;;17.50;17.50;;;;;18.98;48.68;100978.59;6277723;22;45298;-87
2023/06/14 04:40:15;;;;;;;;;23.00;21.25;;;;;18.99;49.10;100982.09;6277482;22;45398;-86
2023/06/14 04:42:40;;;;;;;;;21.25;18.50;;;;;18.98;48.89;100973.31;6303267;22;48062;-87
2023/06/14 04:45:06;;;;;;;;;23.25;20.00;;;;;18.98;49.37;100981.22;6304512;22;45146;-87
2023/06/14 04:47:34;;;;;;;;;20.25;18.25;;;;;19.00;49.21;100982.00;6305073;22;45318;-87
2023/06/14 04:50:00;;;;;;;;;23.75;22.00;;;;;19.02;49.10;100982.72;6277480;22;45693;-87
2023/06/14 04:52:26;;;;;;;;;17.25;17.25;;;;;19.03;49.24;100973.88;6276238;22;46378;-87
2023/06/14 04:54:53;;;;;;;;;23.00;22.00;;;;;19.05;49.57;100976.41;6277231;22;45325;-87
2023/06/14 04:57:21;;;;;;;;;20.00;18.75;;;;;19.08;49.30;100979.69;6303637;22;44663;-87
2023/06/14 04:59:47;;;;;;;;;20.50;19.00;;;;;19.09;49.68;100978.78;6305697;22;45535;-87
2023/06/14 05:02:12;;;;;;;;;19.50;19.00;;;;;19.16;49.62;100986.25;6277485;22;45637;-87
2023/06/14 05:04:40;;;;;;;;;22.50;20.25;;;;;19.18;49.72;100984.34;6304556;22;45424;-86
2023/06/14 05:07:07;;;;;;;;;24.00;22.75;;;;;19.22;49.70;100993.75;6285376;22;45713;-87
2023/06/14 05:09:33;;;;;;;;;21.00;19.50;;;;;19.25;49.61;100988.25;6308010;22;45628;-87
2023/06/14 05:12:00;;;;;;;;;22.00;20.50;;;;;19.25;49.98;100988.25;6305256;22;45518;-87
2023/06/14 05:14:26;;;;;;;;;23.75;22.00;;;;;19.31;49.89;100989.63;6303469;22;45207;-87
2023/06/14 05:16:52;;;;;;;;;21.00;20.25;;;;;19.38;49.82;100996.16;6276870;22;45234;-87
2023/06/14 05:19:18;;;;;;;;;24.25;22.00;;;;;19.40;49.85;100996.91;6276600;22;46319;-87
2023/06/14 05:21:43;;;;;;;;;24.00;22.00;;;;;19.44;49.61;100987.81;6305870;22;45419;-87
2023/06/14 05:24:09;;;;;;;;;20.00;19.00;;;;;19.50;49.80;100994.47;6277650;22;45282;-87
2023/06/14 05:26:35;;;;;;;;;18.75;18.25;;;;;19.51;49.50;100988.22;6306615;22;45295;-87
2023/06/14 05:29:01;;;;;;;;;21.50;19.25;;;;;19.57;49.57;100994.88;6304852;22;45554;-87
2023/06/14 05:31:27;;;;;;;;;21.50;19.75;;;;;19.61;49.56;100994.56;6303954;22;46292;-87
2023/06/14 05:44:07;;;;;;;;;18.75;18.75;;;;;19.90;48.27;101004.84;6308236;22;45246;-87
2023/06/14 05:46:33;;;;;;;;;21.00;20.75;;;;;19.96;48.53;101002.72;6314965;22;45293;-88
2023/06/14 05:48:58;;;;;;;;;17.25;16.75;;;;;20.00;48.39;100998.94;6280780;22;45282;-87
2023/06/14 05:51:24;;;;;;;;;19.75;17.75;;;;;20.07;48.06;101000.19;6304808;22;45230;-87
2023/06/14 05:53:50;;;;;;;;;17.50;17.50;;;;;20.09;48.06;101003.53;6304328;22;46876;-87
2023/06/14 05:56:17;;;;;;;;;19.75;18.75;;;;;20.14;47.59;101000.59;6303839;22;45513;-87
2023/06/14 05:58:43;;;;;;;;;19.75;19.00;;;;;20.20;47.69;101004.56;6306315;22;45373;-87
2023/06/14 06:01:09;;;;;;;;;17.50;17.50;;;;;20.27;47.21;101011.09;6306638;22;45492;-87
2023/06/14 06:03:34;;;;;;;;;20.75;18.75;;;;;20.30;47.57;101002.94;6306098;22;46283;-88
2023/06/14 06:06:00;;;;;;;;;20.00;19.25;;;;;20.37;47.25;101006.81;6306216;22;45324;-87
2023/06/14 06:08:26;;;;;;;;;20.50;19.75;;;;;20.38;47.15;101011.16;6278336;22;45400;-87
2023/06/14 06:10:52;;;;;;;;;16.00;15.75;;;;;20.48;47.23;101007.81;6304521;22;45484;-87
2023/06/14 06:13:17;;;;;;;;;23.25;21.50;;;;;20.54;47.17;101015.28;6305826;22;46443;-87
2023/06/14 06:15:43;;;;;;;;;18.25;17.50;;;;;20.61;46.83;101020.97;6306353;22;45229;-87
2023/06/14 06:18:08;;;;;;;;;20.25;20.25;;;;;20.65;46.45;101019.81;6278321;22;45353;-87
2023/06/14 06:20:34;;;;;;;;;20.00;19.00;;;;;20.72;46.48;101025.44;6304848;22;45171;-87
2023/06/14 06:23:00;;;;;;;;;20.00;20.00;;;;;20.78;46.44;101023.19;6307221;22;46648;-87
2023/06/14 06:25:26;;;;;;;;;19.75;18.00;;;;;20.86;46.31;101021.81;6312543;22;45741;-88
2023/06/14 06:27:53;;;;;;;;;24.50;23.25;;;;;20.92;46.77;101026.66;6280091;22;45247;-89
2023/06/14 06:30:20;;;;;;;;;18.25;17.25;;;;;20.96;45.95;101026.31;6278185;22;45503;-88
2023/06/14 06:32:45;;;;;;;;;22.25;21.00;;;;;21.01;46.46;101025.94;6304131;22;46812;-88
2023/06/14 06:35:12;;;;;;;;;22.00;20.00;;;;;21.07;46.13;101030.75;6303974;22;45290;-88
2023/06/14 06:37:37;;;;;;;;;18.00;17.25;;;;;21.10;46.10;101027.03;6304469;22;45290;-88
2023/06/14 06:40:07;;;;;;;;;15.50;13.50;;;;;21.20;45.38;101037.78;6301911;22;45235;-88
2023/06/14 06:42:32;;;;;;;;;17.75;17.75;;;;;21.21;45.18;101031.53;6304085;22;45334;-90
2023/06/14 06:44:58;;;;;;;;;17.75;15.25;;;;;21.23;44.73;101035.75;6300986;22;45395;-87
2023/06/14 06:47:24;;;;;;;;;20.50;16.75;;;;;21.30;44.56;101025.50;6301897;22;45350;-88
2023/06/14 06:49:50;;;;;;;;;17.75;17.75;;;;;21.40;44.51;101038.03;6301795;22;45420;-88
2023/06/14 06:52:15;;;;;;;;;18.00;16.25;;;;;21.46;44.77;101041.06;6276472;22;45858;-88
2023/06/14 06:54:41;;;;;;;;;16.25;15.50;;;;;21.51;43.73;101040.69;6303661;22;45410;-88
2023/06/14 06:57:07;;;;;;;;;15.25;15.25;;;;;21.57;43.01;101042.03;6302323;22;45864;-88
2023/06/14 06:59:33;;;;;;;;;17.25;15.50;;;;;21.62;43.64;101035.41;6303438;22;45552;-88
2023/06/14 07:01:59;;;;;;;;;19.00;16.00;;;;;21.69;43.76;101045.50;6305183;22;46680;-87
2023/06/14 07:04:24;;;;;;;;;15.25;15.25;;;;;21.78;43.53;101047.47;6282104;22;45912;-90
2023/06/14 07:06:50;;;;;;;;;21.00;20.00;;;;;21.84;42.85;101048.81;6276705;22;45274;-88
2023/06/14 07:09:15;;;;;;;;;15.25;13.25;;;;;21.91;42.65;101050.00;6303441;22;45383;-88
2023/06/14 07:11:42;;;;;;;;;19.75;16.00;;;;;21.97;41.77;101052.16;6275860;22;45859;-89
2023/06/14 07:14:08;;;;;;;;;16.00;14.67;;;;;22.02;41.50;101049.97;6300938;22;45322;-88
2023/06/14 07:16:33;;;;;;;;;16.50;16.50;;;;;22.11;41.87;101061.66;6300644;22;45440;-89
2023/06/14 07:19:00;;;;;;;;;16.75;16.25;;;;;22.17;41.13;101065.59;6301089;22;45376;-89
2023/06/14 07:21:26;;;;;;;;;18.00;14.00;;;;;22.25;40.60;101064.97;6275784;22;46612;-88
2023/06/14 07:23:52;;;;;;;;;12.00;12.00;;;;;22.32;40.54;101068.84;6303927;22;45446;-88
2023/06/14 07:26:18;;;;;;;;;18.25;16.75;;;;;22.41;41.09;101073.38;6299766;22;45215;-88
2023/06/14 07:28:46;;;;;;;;;16.00;14.00;;;;;22.48;40.71;101073.72;6276663;22;45603;-88
2023/06/14 07:31:12;;;;;;;;;16.75;15.25;;;;;22.55;40.29;101076.75;6300607;22;45520;-88
2023/06/14 07:33:38;;;;;;;;;17.00;15.00;;;;;22.61;40.63;101067.44;6222154;22;1210672;-88
2023/06/14 07:36:03;;;;;;;;;14.75;14.75;;;;;22.72;40.88;101079.84;6304245;22;45341;-88
2023/06/14 07:38:29;;;;;;;;;16.00;14.50;;;;;22.79;40.35;101073.03;6305791;22;45649;-88
2023/06/14 07:40:54;;;;;;;;;15.25;13.25;;;;;22.87;40.31;101083.03;6309277;22;46900;-88
2023/06/14 07:43:19;;;;;;;;;14.25;13.00;;;;;22.94;39.97;101082.38;6309588;22;45458;-88
2023/06/14 07:45:45;;;;;;;;;17.00;15.75;;;;;23.01;39.83;101082.69;6304149;22;45308;-88
2023/06/14 07:48:11;;;;;;;;;17.50;15.00;;;;;23.11;40.05;101084.59;6305957;22;45291;-89
2023/06/14 07:50:36;;;;;;;;;14.67;13.67;;;;;23.20;39.28;101083.81;6276719;22;47727;-89
2023/06/14 07:53:01;;;;;;;;;17.00;15.75;;;;;23.27;39.41;101092.13;6303042;22;45528;-89
2023/06/14 07:55:27;;;;;;;;;15.00;14.75;;;;;23.34;39.22;101094.13;6305557;22;45677;-88
2023/06/14 07:57:53;;;;;;;;;17.25;15.50;;;;;23.41;38.72;101086.47;6304142;22;45231;-88
2023/06/14 08:00:20;;;;;;;;;12.75;12.75;;;;;23.51;38.84;101094.50;6276953;22;47131;-88
2023/06/14 08:02:45;;;;;;;;;14.33;14.33;;;;;23.58;38.14;101085.03;6302410;22;45474;-89
2023/06/14 08:05:11;;;;;;;;;13.75;13.25;;;;;23.66;38.37;101094.16;6305109;22;45298;-88
2023/06/14 08:07:38;;;;;;;;;13.00;12.67;;;;;23.72;38.12;101099.78;6278061;22;45291;-88
2023/06/14 08:10:05;;;;;;;;;12.67;10.00;;;;;23.79;38.42;101093.94;6277934;22;47028;-88
2023/06/14 08:12:30;;;;;;;;;14.00;13.00;;;;;23.89;38.23;101098.31;6303810;22;45403;-88
2023/06/14 08:14:56;;;;;;;;;13.33;13.33;;;;;23.97;37.78;101099.47;6304753;22;45449;-88
2023/06/14 08:17:21;;;;;;;;;16.00;15.50;;;;;24.07;37.67;101100.31;6304622;22;45494;-89
2023/06/14 08:19:46;;;;;;;;;16.00;14.50;;;;;24.19;37.03;101095.78;6309919;22;47176;-88
2023/06/14 08:22:12;;;;;;;;;10.00;10.00;;;;;24.31;37.36;101103.63;6282109;22;45515;-88
2023/06/14 08:24:39;;;;;;;;;14.33;14.33;;;;;24.38;37.21;101102.97;6304222;22;45375;-89
2023/06/14 08:27:05;;;;;;;;;11.00;11.00;;;;;24.50;37.20;101113.47;6271282;22;45760;-89
2023/06/14 08:29:31;;;;;;;;;12.00;11.75;;;;;24.60;36.21;101106.34;6274565;22;47303;-88
2023/06/14 08:31:56;;;;;;;;;16.00;13.00;;;;;24.72;36.56;101106.22;6303237;22;45562;-89
2023/06/14 08:34:23;;;;;;;;;13.25;12.25;;;;;24.82;35.89;101113.22;6304212;22;45225;-88
2023/06/14 08:36:50;;;;;;;;;15.00;15.00;;;;;24.94;35.88;101111.28;6305900;22;45364;-89
2023/06/14 08:39:15;;;;;;;;;13.67;13.00;;;;;25.03;35.47;101109.59;6277144;22;46470;-89
2023/06/14 08:41:43;;;;;;;;;13.00;12.33;;;;;25.16;35.12;101111.97;6305155;22;45572;-89
2023/06/14 08:44:08;;;;;;;;;15.00;14.33;;;;;25.25;35.45;101107.59;6302627;22;45447;-89
2023/06/14 08:46:35;;;;;;;;;14.00;14.00;;;;;25.32;34.79;101102.56;6303866;22;45324;-89
2023/06/14 08:49:02;;;;;;;;;16.00;15.67;;;;;25.43;34.37;101109.53;6276768;22;46253;-89
2023/06/14 08:51:33;;;;;;;;;13.25;12.25;;;;;25.54;33.95;101105.91;6303610;22;45219;-88
2023/06/14 08:54:01;;;;;;;;;14.00;12.33;;;;;25.67;34.14;101102.88;6305629;22;45272;-89
2023/06/14 08:56:29;;;;;;;;;13.00;12.00;;;;;25.76;33.60;101107.34;6278907;22;45211;-88
2023/06/14 08:58:56;;;;;;;;;14.50;12.00;;;;;25.89;33.82;101115.00;6308657;22;46747;-88
2023/06/14 09:01:23;;;;;;;;;15.00;14.00;;;;;25.98;33.49;101099.97;6309269;22;45291;-89
2023/06/14 09:03:50;;;;;;;;;13.33;12.00;;;;;26.05;33.92;101100.22;6279503;22;45384;-88
2023/06/14 09:06:15;;;;;;;;;14.67;14.33;;;;;26.22;33.28;101110.06;6279133;22;45257;-89
2023/06/14 09:08:43;;;;;;;;;13.67;13.33;;;;;26.35;32.95;101112.41;6304655;22;45863;-89
2023/06/14 09:11:12;;;;;;;;;14.67;12.33;;;;;26.49;32.62;101110.22;6305302;22;45353;-89
2023/06/14 09:13:37;;;;;;;;;12.00;12.00;;;;;26.58;32.72;101117.31;6278123;22;45298;-89
2023/06/14 09:16:03;;;;;;;;;13.00;12.67;;;;;26.68;31.57;101110.06;6303384;22;45298;-89
2023/06/14 09:18:47;;;;;;;;;12.00;12.00;;;;;26.82;31.15;101113.19;6278270;22;47860;-88
2023/06/14 09:21:13;;;;;;;;;12.25;12.25;;;;;26.92;31.01;101107.78;6281339;22;45298;-89
2023/06/14 09:23:41;;;;;;;;;13.00;12.67;;;;;26.98;30.38;101111.69;6306117;22;45353;-89
2023/06/14 09:26:17;;;;;;;;;14.33;12.67;;;;;27.00;31.15;101118.53;6309110;22;45412;-89
2023/06/14 09:28:47;;;;;;;;;11.00;11.00;;;;;27.13;31.01;101117.31;6309756;22;48167;-88
2023/06/14 09:31:14;;;;;;;;;10.67;10.33;;;;;27.25;30.78;101116.03;6283704;22;45303;-89
2023/06/14 09:33:48;;;;;;;;;11.00;10.33;;;;;27.38;29.99;101114.78;6307822;22;45280;-89
2023/06/14 09:36:24;;;;;;;;;13.67;13.67;;;;;27.50;28.82;101123.38;6312332;22;45329;-89
2023/06/14 09:39:00;;;;;;;;;11.00;11.00;;;;;27.63;28.92;101113.13;6312689;22;46977;-89
2023/06/14 09:41:33;;;;;;;;;13.00;10.67;;;;;27.77;28.23;101108.19;6308262;22;45354;-88
2023/06/14 09:44:02;;;;;;;;;14.67;13.67;;;;;27.89;28.38;101117.59;6309119;22;45349;-89
2023/06/14 09:46:29;;;;;;;;;12.00;10.33;;;;;28.02;28.51;101114.47;6306479;22;45616;-89
2023/06/14 09:48:55;;;;;;;;;6.67;6.67;;;;;28.17;27.67;101116.53;6303810;22;46824;-89
2023/06/14 09:51:22;;;;;;;;;11.00;11.00;;;;;28.29;27.91;101117.94;6277797;22;45673;-89
2023/06/14 09:53:49;;;;;;;;;11.00;11.00;;;;;28.43;28.16;101116.47;6279299;22;45248;-89
2023/06/14 09:56:30;;;;;;;;;15.67;12.33;;;;;28.58;27.73;101121.16;6305300;22;45595;-89
2023/06/14 09:58:58;;;;;;;;;11.33;11.00;;;;;28.72;27.37;101128.53;6303423;22;45768;-88
2023/06/14 10:01:27;;;;;;;;;14.75;12.75;;;;;28.84;26.93;101131.72;6277944;22;45219;-89
2023/06/14 10:03:56;;;;;;;;;12.00;12.00;;;;;28.98;27.19;101126.72;6279808;22;45302;-89
2023/06/14 10:06:24;;;;;;;;;12.50;10.75;;;;;29.08;26.51;101130.91;6279151;22;45611;-89
2023/06/14 10:08:54;;;;;;;;;10.75;10.75;;;;;29.24;26.38;101139.94;6304353;22;46654;-89
2023/06/14 10:11:19;;;;;;;;;14.25;14.25;;;;;29.36;26.92;101129.72;6306123;22;45401;-89
2023/06/14 10:13:45;;;;;;;;;11.25;11.25;;;;;29.47;26.61;101124.00;6311001;22;45325;-89
2023/06/14 10:16:46;;;;;;;;;13.25;12.75;;;;;29.62;26.99;101130.50;6311129;22;45477;-89
2023/06/14 10:19:20;;;;;;;;;11.25;11.00;;;;;29.82;26.78;101137.16;6279149;22;45536;-88
2023/06/14 10:22:00;;;;;;;;;13.00;12.75;;;;;29.98;25.93;101125.50;6278125;22;45234;-89
2023/06/14 10:24:34;;;;;;;;;15.00;13.75;;;;;30.11;26.58;101126.81;6302944;22;45372;-88
2023/06/14 10:27:00;;;;;;;;;8.75;8.75;;;;;30.29;25.78;101133.75;6301687;22;45491;-89
2023/06/14 10:29:31;;;;;;;;;12.00;12.00;;;;;30.45;25.81;101133.66;6301620;22;47480;-89
2023/06/14 10:31:59;;;;;;;;;14.25;13.25;;;;;30.62;25.29;101128.19;6302581;22;45384;-89
2023/06/14 10:34:30;;;;;;;;;11.25;11.25;;;;;30.75;26.06;101128.47;6273660;22;45581;-88
2023/06/14 10:37:04;;;;;;;;;17.00;15.00;;;;;30.91;25.34;101119.41;6299777;22;45388;-88
2023/06/14 10:39:30;;;;;;;;;12.67;11.67;;;;;31.03;24.91;101116.28;6273867;22;47813;-89
2023/06/14 10:41:57;;;;;;;;;12.33;12.33;;;;;31.19;25.10;101123.38;6302457;22;45579;-89
2023/06/14 10:44:23;;;;;;;;;12.00;12.00;;;;;31.32;25.04;101117.38;6303367;22;45428;-89
2023/06/14 10:46:57;;;;;;;;;11.00;10.67;;;;;31.45;24.80;101116.75;6275792;22;45167;-88
2023/06/14 10:49:43;;;;;;;;;12.25;12.25;;;;;31.62;24.26;101124.63;6301738;22;47312;-89
2023/06/14 10:52:16;;;;;;;;;13.00;13.00;;;;;31.70;24.26;101127.22;6302760;22;45373;-88
2023/06/14 10:55:01;;;;;;;;;12.50;11.75;;;;;31.86;24.24;101116.31;6305487;22;45453;-88
2023/06/14 10:57:27;;;;;;;;;13.25;12.25;;;;;31.95;23.84;101110.78;6304341;22;45376;-89
2023/06/14 10:59:52;;;;;;;;;14.00;14.00;;;;;32.04;23.98;101112.38;6274023;22;47202;-88
2023/06/14 11:02:42;;;;;;;;;12.75;12.75;;;;;32.13;23.99;101118.47;6302073;22;46036;-87
2023/06/14 11:05:12;;;;;;;;;11.25;11.25;;;;;32.26;23.41;101115.91;6302386;22;45203;-88
2023/06/14 11:08:15;;;;;;;;;9.75;9.75;;;;;32.36;23.33;101104.00;6301471;22;45275;-89
2023/06/14 11:10:42;;;;;;;;;13.25;13.25;;;;;32.47;23.19;101108.91;6274317;22;47789;-88
2023/06/14 11:13:08;;;;;;;;;13.00;13.00;;;;;32.58;22.94;101117.50;6275714;22;45402;-89
2023/06/14 11:15:36;;;;;;;;;12.50;12.50;;;;;32.68;23.01;101111.78;6275286;22;45838;-89
2023/06/14 11:18:02;;;;;;;;;11.75;11.75;;;;;32.76;22.80;101114.34;6273562;22;45294;-89
2023/06/14 11:20:31;;;;;;;;;11.75;11.75;;;;;32.87;22.49;101107.59;6275700;22;46744;-89